METAR Reports From Nearby Airports

 

KTIW - Tacoma, Washington, USA
Distance from station: S 6mi, 10km
Updated: Mon, 22-Jan-2018 6:53pm PST
Partly cloudy
Partly cloudy
 Wind from S
Wind: S 3 mph , 6 km/h
Temperature: 39°F , 4°C
Dew Point: 39°F , 4°C
Humidity: 100%
Barometer: 30.28 inHg , 1025.4 hPa
Clouds: Partly cloudy
Visibility: 10 miles , 16 km
Cloud details: Partly cloudy 2800 ft
2018/01/23 02:53 KTIW 230253Z 18003KT 10SM SCT028 04/04 A3028 RMK AO2 SLP255 T00440039 56008
KPWT - Bremerton Ntnl, Washington, USA
Distance from station: NW 13mi, 20km
Updated: Mon, 22-Jan-2018 6:56pm PST
Clear
Clear
 Wind from SW
Wind: SW 5 mph , 7 km/h
Temperature: 36°F , 2°C
Wind Chill: 32°F , 0°C
Dew Point: 36°F , 2°C
Humidity: 100%
Barometer: 30.27 inHg , 1025.1 hPa
Clouds: Clear
Visibility: 10 miles , 16 km
2018/01/23 02:56 KPWT 230256Z AUTO 23004KT 10SM CLR 02/02 A3027 RMK AO2 SLP271 T00220017 58001 FZRANO
KSEA - Seattle/Metro, Washington, USA
Distance from station: ENE 14mi, 23km
Updated: Mon, 22-Jan-2018 6:53pm PST
Partly cloudy
Partly cloudy
 Wind from ESE
Wind: ESE 7 mph , 11 km/h
Temperature: 43°F , 6°C
Wind Chill: 39°F , 4°C
Dew Point: 37°F , 3°C
Humidity: 81%
Barometer: 30.27 inHg , 1025.1 hPa
Clouds: Partly cloudy
Visibility: 10 miles , 16 km
Cloud details: Partly cloudy 2600 ft
Partly cloudy 20000 ft
2018/01/23 02:53 KSEA 230253Z 12006KT 10SM SCT026 SCT200 06/03 A3027 RMK AO2 SLP261 T00560028 58004
 
KTCM - Tacoma/Mc Chord, Washington, USA
Distance from station: SSE 17mi, 28km
Updated: Mon, 22-Jan-2018 7:08pm PST
Haze, Partly cloudy
Haze, Partly cloudy
 Wind from S
Wind: S 6 mph , 9 km/h
Temperature: 36°F , 2°C
Wind Chill: 31°F , -1°C
Dew Point: 36°F , 2°C
Humidity: 100%
Barometer: 30.29 inHg , 1025.7 hPa
Summary: Haze
Clouds: Partly cloudy
Visibility: 4 miles , 6 km
Cloud details: Partly cloudy 3400 ft
2018/01/23 03:08 KTCM 230308Z AUTO 19005KT 4SM HZ SCT034 02/02 A3029 RMK AO2 SLP264 $
KBFI - Seattle/Boeing, Washington, USA
Distance from station: NE 19mi, 30km
Updated: Mon, 22-Jan-2018 6:53pm PST
Partly cloudy
Partly cloudy
 Wind from SSE
Wind: SSE 6 mph , 9 km/h
Temperature: 43°F , 6°C
Wind Chill: 39°F , 4°C
Dew Point: 37°F , 3°C
Humidity: 81%
Barometer: 30.28 inHg , 1025.4 hPa
Clouds: Partly cloudy
Visibility: 10 miles , 16 km
Cloud details: Partly cloudy 7000 ft
2018/01/23 02:53 KBFI 230253Z 15005KT 10SM SCT070 06/03 A3028 RMK AO2 SLP254 T00560028 58003
KGRF - Fort Lewis/Gray, Washington, USA
Distance from station: S 20mi, 32km
Updated: Mon, 22-Jan-2018 6:58pm PST
Few Clouds
Few Clouds
 Wind from SE
Wind: SE 7 mph , 11 km/h
Temperature: 39°F , 4°C
Wind Chill: 34°F , 1°C
Dew Point: 39°F , 4°C
Humidity: 100%
Barometer: 30.28 inHg , 1025.4 hPa
Clouds: Few Clouds
Visibility: 10 miles , 16 km
Cloud details: Few Clouds 3200 ft
2018/01/23 02:58 KGRF 230258Z 14006KT 10SM FEW032 04/04 A3028 RMK AO2A SLP260 60000 T00400040 55004 $
 
KRNT - Renton, Washington, USA
Distance from station: ENE 20mi, 32km
Updated: Mon, 22-Jan-2018 6:53pm PST
Clear
Clear
 Wind from E
Wind: E 3 mph , 6 km/h
Temperature: 43°F , 6°C
Dew Point: 37°F , 3°C
Humidity: 81%
Barometer: 30.28 inHg , 1025.4 hPa
Clouds: Clear
Visibility: 10 miles , 16 km
2018/01/23 02:53 KRNT 230253Z 10003KT 10SM CLR 06/03 A3028 RMK AO2 SLP259 T00610028 58002
KPLU - Puyallup/Thun, Washington, USA
Distance from station: SE 23mi, 36km
Updated: Mon, 22-Jan-2018 7:15pm PST
Mostly cloudy
Mostly cloudy
 Wind from calm
Wind: Calm
Temperature: 36°F , 2°C
Dew Point: 36°F , 2°C
Humidity: 100%
Barometer: 30.28 inHg , 1025.4 hPa
Clouds: Mostly cloudy
Visibility: 10 miles , 16 km
Cloud details: Few Clouds 2800 ft
Partly cloudy 3200 ft
Mostly cloudy 4300 ft
2018/01/23 03:15 KPLU 230315Z AUTO 00000KT 10SM FEW028 SCT032 BKN043 02/02 A3028 RMK AO2
KSHN - Shelton, Washington, USA
Distance from station: WSW 27mi, 43km
Updated: Mon, 22-Jan-2018 7:11pm PST
Mist, Mostly cloudy
Mist, Mostly cloudy
 Wind from calm
Wind: Calm
Temperature: 39°F , 4°C
Dew Point: 39°F , 4°C
Humidity: 100%
Barometer: 30.26 inHg , 1024.7 hPa
Summary: Mist
Clouds: Mostly cloudy
Visibility: 5 miles , 8 km
Cloud details: Few Clouds 200 ft
Mostly cloudy 2500 ft
2018/01/23 03:11 KSHN 230311Z AUTO 00000KT 5SM BR FEW002 BKN025 04/04 A3026 RMK AO2 T00390039 $
 
KOLM - Olympia, Washington, USA
Distance from station: SSW 30mi, 49km
Updated: Mon, 22-Jan-2018 6:54pm PST
Fog, Clear
Fog, Clear
 Wind from calm
Wind: Calm
Temperature: 36°F , 2°C
Dew Point: 36°F , 2°C
Humidity: 100%
Barometer: 30.29 inHg , 1025.7 hPa
Summary: Fog
Clouds: Clear
Visibility: 1/2 mile , 2 km
2018/01/23 02:54 KOLM 230254Z 00000KT 1/2SM FG CLR 02/02 A3029 RMK AO2 SLP258 T00170017 55003
KPAE - Everett, Washington, USA
Distance from station: NNE 41mi, 67km
Updated: Mon, 22-Jan-2018 6:53pm PST
Clear
Clear
 Wind from ESE
Wind: ESE 9 mph , 15 km/h
Temperature: 43°F , 6°C
Wind Chill: 38°F , 3°C
Dew Point: 37°F , 3°C
Humidity: 81%
Barometer: 30.26 inHg , 1024.7 hPa
Clouds: Clear
Visibility: 10 miles , 16 km
2018/01/23 02:53 KPAE 230253Z 12008KT 10SM CLR 06/03 A3026 RMK AO2 SLP251 T00560028 58004
KCLS - Chehalis Central, Washington, USA
Distance from station: SSW 50mi, 80km
Updated: Mon, 22-Jan-2018 7:15pm PST
Mostly cloudy
Mostly cloudy
 Wind from SSW
Wind: SSW 3 mph , 6 km/h
Temperature: 41°F , 5°C
Dew Point: 41°F , 5°C
Humidity: 100%
Barometer: 30.29 inHg , 1025.7 hPa
Clouds: Mostly cloudy
Visibility: 10 miles , 16 km
Cloud details: Few Clouds 3300 ft
Partly cloudy 3900 ft
Mostly cloudy 4700 ft
2018/01/23 03:15 KCLS 230315Z AUTO 21003KT 10SM FEW033 SCT039 BKN047 05/05 A3029 RMK AO2